createdAt,value
2023-05-17T00:03:01.271Z,10.33
2023-05-17T00:07:09.060Z,10.31
2023-05-17T00:11:17.417Z,10.31
2023-05-17T00:15:27.359Z,10.32
2023-05-17T00:19:35.322Z,10.29
2023-05-17T00:23:43.505Z,10.26
2023-05-17T00:27:51.221Z,10.24
2023-05-17T00:31:59.385Z,10.24
2023-05-17T00:36:08.593Z,10.24
2023-05-17T00:40:18.501Z,10.23
2023-05-17T00:44:26.270Z,10.18
2023-05-17T00:48:34.812Z,10.15
2023-05-17T00:52:43.963Z,10.12
2023-05-17T00:56:51.710Z,10.13
2023-05-17T01:00:59.758Z,10.14
2023-05-17T01:05:08.905Z,10.14
2023-05-17T01:09:17.919Z,10.11
2023-05-17T01:13:32.665Z,10.07
2023-05-17T01:17:43.679Z,10.05
2023-05-17T01:22:12.658Z,10.05
2023-05-17T01:26:22.572Z,10.08
2023-05-17T01:30:31.830Z,10.11
2023-05-17T01:34:39.548Z,10.10
2023-05-17T01:38:47.214Z,10.09
2023-05-17T01:42:58.599Z,10.07
2023-05-17T01:47:14.102Z,10.07
2023-05-17T01:51:22.981Z,10.06
2023-05-17T01:55:36.300Z,10.05
2023-05-17T01:59:45.187Z,10.01
2023-05-17T02:03:53.472Z,9.96
2023-05-17T02:08:01.675Z,9.91
2023-05-17T02:12:10.676Z,9.84
2023-05-17T02:16:18.004Z,9.80
2023-05-17T02:20:27.425Z,9.77
2023-05-17T02:24:35.775Z,9.74
2023-05-17T02:28:44.012Z,9.69
2023-05-17T02:32:52.759Z,9.62
2023-05-17T02:37:00.892Z,9.56
2023-05-17T02:41:08.882Z,9.53
2023-05-17T02:45:16.697Z,9.50
2023-05-17T02:49:24.517Z,9.47
2023-05-17T02:53:32.507Z,9.41
2023-05-17T02:57:40.526Z,9.32
2023-05-17T03:01:50.016Z,9.26
2023-05-17T03:05:58.096Z,9.21
2023-05-17T03:10:05.994Z,9.18
2023-05-17T03:14:13.960Z,9.12
2023-05-17T03:18:22.459Z,9.02
2023-05-17T03:22:30.391Z,8.96
2023-05-17T03:26:38.238Z,8.90
2023-05-17T03:30:46.264Z,8.87
2023-05-17T03:34:54.623Z,8.82
2023-05-17T03:39:01.901Z,8.77
2023-05-17T03:43:09.947Z,8.74
2023-05-17T03:47:17.837Z,8.70
2023-05-17T03:51:25.630Z,8.65
2023-05-17T03:55:33.141Z,8.59
2023-05-17T03:59:41.239Z,8.58
2023-05-17T04:03:49.855Z,8.57
2023-05-17T04:07:58.008Z,8.58
2023-05-17T04:12:06.147Z,8.57
2023-05-17T04:16:13.914Z,8.61
2023-05-17T04:20:22.217Z,8.68
2023-05-17T04:24:30.242Z,8.78
2023-05-17T04:28:37.926Z,8.82
2023-05-17T04:32:50.546Z,8.84
2023-05-17T04:37:02.489Z,8.86
2023-05-17T04:41:12.899Z,8.87
2023-05-17T04:45:26.590Z,8.90
2023-05-17T04:49:38.994Z,8.94
2023-05-17T04:53:46.613Z,8.96
2023-05-17T04:57:58.302Z,8.92
2023-05-17T05:02:07.658Z,8.89
2023-05-17T05:06:16.378Z,8.91
2023-05-17T05:10:31.728Z,8.95
2023-05-17T05:14:47.213Z,8.94
2023-05-17T05:18:54.981Z,8.95
2023-05-17T05:23:09.798Z,8.97
2023-05-17T05:27:20.748Z,9.00
2023-05-17T05:31:32.975Z,9.06
2023-05-17T05:35:47.655Z,9.16
2023-05-17T05:39:58.459Z,9.20
2023-05-17T05:44:06.710Z,9.17
2023-05-17T05:48:19.118Z,9.24
2023-05-17T05:52:26.615Z,9.27
2023-05-17T05:56:36.223Z,9.31
2023-05-17T06:00:52.140Z,9.40
2023-05-17T06:04:59.883Z,9.47
2023-05-17T06:09:12.652Z,9.64
2023-05-17T06:13:22.091Z,9.69
2023-05-17T06:17:32.977Z,9.72
2023-05-17T06:21:47.730Z,9.76
2023-05-17T06:25:57.620Z,9.80
2023-05-17T06:30:11.585Z,9.73
2023-05-17T06:34:19.023Z,9.64
2023-05-17T06:38:43.042Z,9.62
2023-05-17T06:42:54.958Z,9.65
2023-05-17T06:47:07.716Z,9.63
2023-05-17T06:51:17.921Z,9.65
2023-05-17T06:55:32.584Z,9.75
2023-05-17T06:59:39.964Z,9.79
2023-05-17T07:03:50.206Z,9.78
2023-05-17T07:07:57.949Z,9.83
2023-05-17T07:12:09.092Z,9.88
2023-05-17T07:16:20.147Z,9.96
2023-05-17T07:20:33.087Z,10.01
2023-05-17T07:24:49.487Z,10.04
2023-05-17T07:29:00.821Z,10.05
2023-05-17T07:33:09.226Z,10.08
2023-05-17T07:37:19.608Z,10.19
2023-05-17T07:41:32.071Z,10.33
2023-05-17T07:45:41.800Z,10.37
2023-05-17T07:49:55.622Z,10.42
2023-05-17T07:54:10.631Z,10.45
2023-05-17T07:58:25.220Z,10.47
2023-05-17T08:02:43.105Z,10.51
2023-05-17T08:06:55.943Z,10.55
2023-05-17T08:11:08.492Z,10.61
2023-05-17T08:15:22.847Z,10.63
2023-05-17T08:19:33.031Z,10.64
2023-05-17T08:23:44.962Z,10.68
2023-05-17T08:28:00.293Z,10.67
2023-05-17T08:32:16.442Z,10.70
2023-05-17T08:36:24.750Z,10.76
2023-05-17T08:40:36.888Z,10.77
2023-05-17T08:44:44.539Z,10.71
2023-05-17T08:49:04.200Z,10.69
2023-05-17T08:53:12.762Z,10.63
2023-05-17T08:57:24.492Z,10.65
2023-05-17T09:01:44.144Z,10.70
2023-05-17T09:05:54.563Z,10.76
2023-05-17T09:10:06.096Z,10.81
2023-05-17T09:14:13.512Z,10.84
2023-05-17T09:18:22.777Z,10.89
2023-05-17T09:22:31.304Z,10.89
2023-05-17T09:26:46.120Z,10.95
2023-05-17T09:30:55.242Z,11.05
2023-05-17T09:35:03.259Z,11.11
2023-05-17T09:39:13.857Z,11.16
2023-05-17T09:43:30.314Z,11.19
2023-05-17T09:47:38.491Z,11.25
2023-05-17T09:51:48.272Z,11.30
2023-05-17T09:55:58.946Z,11.34
2023-05-17T10:00:12.513Z,11.35
2023-05-17T10:04:26.327Z,11.34
2023-05-17T10:08:34.865Z,11.30
2023-05-17T10:12:44.507Z,11.36
2023-05-17T10:16:57.735Z,11.48
2023-05-17T10:21:06.476Z,11.66
2023-05-17T10:25:16.352Z,11.78
2023-05-17T10:29:26.653Z,11.85
2023-05-17T10:33:36.906Z,11.94
2023-05-17T10:37:44.752Z,12.00
2023-05-17T10:42:07.110Z,12.01
2023-05-17T10:46:23.098Z,12.06
2023-05-17T10:50:32.582Z,12.06
2023-05-17T10:54:40.780Z,12.14
2023-05-17T10:58:49.195Z,12.17
2023-05-17T11:03:14.627Z,12.21
2023-05-17T11:07:29.593Z,12.24
2023-05-17T11:11:37.732Z,12.30
2023-05-17T11:15:46.259Z,12.36
2023-05-17T11:19:58.820Z,12.37
2023-05-17T11:24:09.017Z,12.29
2023-05-17T11:28:23.156Z,12.24
2023-05-17T11:32:33.085Z,12.31
2023-05-17T11:36:54.649Z,12.36
2023-05-17T11:45:30.467Z,12.35
2023-05-17T11:49:40.561Z,12.40
2023-05-17T11:53:49.529Z,12.38
2023-05-17T11:57:58.325Z,12.33
2023-05-17T12:02:06.508Z,12.34
2023-05-17T12:06:16.815Z,12.39
2023-05-17T12:10:24.901Z,12.42
2023-05-17T12:14:33.155Z,12.50
2023-05-17T12:18:42.420Z,12.52
2023-05-17T12:22:57.676Z,12.47
2023-05-17T12:27:05.994Z,12.45
2023-05-17T12:31:16.253Z,12.47
2023-05-17T12:35:24.028Z,12.49
2023-05-17T12:39:34.061Z,12.43
2023-05-17T12:43:45.137Z,12.46
2023-05-17T12:47:52.602Z,12.54
2023-05-17T12:52:06.480Z,12.62
2023-05-17T12:56:22.554Z,12.65
2023-05-17T13:00:32.128Z,12.59
2023-05-17T13:04:40.354Z,12.46
2023-05-17T13:08:48.690Z,12.41
2023-05-17T13:13:01.068Z,12.45
2023-05-17T13:17:10.303Z,12.47
2023-05-17T13:21:19.249Z,12.46
2023-05-17T13:25:27.091Z,12.41
2023-05-17T13:29:40.140Z,12.37
2023-05-17T13:33:50.215Z,12.32
2023-05-17T13:37:58.700Z,12.32
2023-05-17T13:42:06.660Z,12.42
2023-05-17T13:46:14.551Z,12.50
2023-05-17T13:50:24.198Z,12.54
2023-05-17T13:54:32.108Z,12.56
2023-05-17T13:58:39.903Z,12.59
2023-05-17T14:02:47.186Z,12.63
2023-05-17T14:06:55.447Z,12.64
2023-05-17T14:11:02.868Z,12.63
2023-05-17T14:15:14.314Z,12.67
2023-05-17T14:19:24.185Z,12.68
2023-05-17T14:23:32.795Z,12.68
2023-05-17T14:27:40.946Z,12.66
2023-05-17T14:31:48.893Z,12.65
2023-05-17T14:35:59.594Z,12.67
2023-05-17T14:40:09.453Z,12.70
2023-05-17T14:44:17.521Z,12.73
2023-05-17T14:48:25.200Z,12.75
2023-05-17T14:52:32.574Z,12.78
2023-05-17T14:56:41.591Z,12.81
2023-05-17T15:00:54.144Z,12.81
2023-05-17T15:05:04.864Z,12.77
2023-05-17T15:09:14.358Z,12.73
2023-05-17T15:13:22.147Z,12.69
2023-05-17T15:17:30.375Z,12.66
2023-05-17T15:21:38.236Z,12.62
2023-05-17T15:25:46.063Z,12.59
2023-05-17T15:29:54.118Z,12.60
2023-05-17T15:34:03.764Z,12.63
2023-05-17T15:38:15.780Z,12.64
2023-05-17T15:42:25.584Z,12.63
2023-05-17T15:46:35.056Z,12.58
2023-05-17T15:50:44.474Z,12.55
2023-05-17T15:54:54.032Z,12.51
2023-05-17T15:59:02.875Z,12.49
2023-05-17T16:03:10.733Z,12.49
2023-05-17T16:07:19.528Z,12.44
2023-05-17T16:11:29.234Z,12.41
2023-05-17T16:15:37.173Z,12.39
2023-05-17T16:19:45.479Z,12.36
2023-05-17T16:23:53.636Z,12.33
2023-05-17T16:28:01.465Z,12.33
2023-05-17T16:32:09.837Z,12.32
2023-05-17T16:36:18.014Z,12.30
2023-05-17T16:40:28.835Z,12.26
2023-05-17T16:44:38.316Z,12.21
2023-05-17T16:48:46.002Z,12.17
2023-05-17T16:52:54.952Z,12.13
2023-05-17T16:57:08.282Z,12.09
2023-05-17T17:01:16.601Z,12.05
2023-05-17T17:05:24.406Z,12.00
2023-05-17T17:09:32.540Z,11.97
2023-05-17T17:13:40.637Z,11.96
2023-05-17T17:17:48.412Z,11.97
2023-05-17T17:21:55.765Z,12.00
2023-05-17T17:26:03.667Z,11.99
2023-05-17T17:30:16.842Z,11.95
2023-05-17T17:34:28.893Z,11.89
2023-05-17T17:38:38.972Z,11.84
2023-05-17T17:42:47.662Z,11.80
2023-05-17T17:46:56.167Z,11.77
2023-05-17T17:51:04.909Z,11.72
2023-05-17T17:55:13.999Z,11.65
2023-05-17T17:59:21.808Z,11.58
2023-05-17T18:03:29.919Z,11.54
2023-05-17T18:07:37.897Z,11.53
2023-05-17T18:11:45.810Z,11.55
2023-05-17T18:15:53.844Z,11.55
2023-05-17T18:20:01.956Z,11.55
2023-05-17T18:24:10.884Z,11.57
2023-05-17T18:28:21.701Z,11.62
2023-05-17T18:32:38.179Z,11.63
2023-05-17T18:36:48.205Z,11.60
2023-05-17T18:40:56.411Z,11.56
2023-05-17T18:45:05.293Z,11.50
2023-05-17T18:49:13.554Z,11.43
2023-05-17T18:53:21.086Z,11.41
2023-05-17T18:57:28.742Z,11.41
2023-05-17T19:01:38.293Z,11.41
2023-05-17T19:05:45.966Z,11.40
2023-05-17T19:09:54.332Z,11.40
2023-05-17T19:14:02.702Z,11.35
2023-05-17T19:18:11.064Z,11.29
2023-05-17T19:22:20.091Z,11.23
2023-05-17T19:26:27.928Z,11.20
2023-05-17T19:30:37.534Z,11.19
2023-05-17T19:34:45.941Z,11.19
2023-05-17T19:38:53.874Z,11.19
2023-05-17T19:43:02.319Z,11.11
2023-05-17T19:47:11.627Z,11.03
2023-05-17T19:51:20.951Z,10.96
2023-05-17T19:55:30.417Z,10.92
2023-05-17T19:59:41.620Z,10.91
2023-05-17T20:03:49.579Z,10.93
2023-05-17T20:07:57.909Z,10.95
2023-05-17T20:12:07.388Z,10.95
2023-05-17T20:16:15.303Z,10.93
2023-05-17T20:20:23.400Z,10.91
2023-05-17T20:24:31.431Z,10.86
2023-05-17T20:28:40.141Z,10.84
2023-05-17T20:32:47.895Z,10.82
2023-05-17T20:36:56.470Z,10.77
2023-05-17T20:41:07.081Z,10.70
2023-05-17T20:45:18.084Z,10.62
2023-05-17T20:49:26.662Z,10.50
2023-05-17T20:53:35.051Z,10.37
2023-05-17T20:57:43.347Z,10.23
2023-05-17T21:01:51.765Z,10.20
2023-05-17T21:06:01.036Z,10.21
2023-05-17T21:10:10.294Z,10.20
2023-05-17T21:14:18.557Z,10.15
2023-05-17T21:18:26.564Z,10.12
2023-05-17T21:22:35.862Z,10.04
2023-05-17T21:26:43.745Z,10.00
2023-05-17T21:30:53.432Z,10.00
2023-05-17T21:35:01.988Z,10.03
2023-05-17T21:39:09.655Z,9.97
2023-05-17T21:43:18.839Z,9.87
2023-05-17T21:47:28.446Z,9.81
2023-05-17T21:51:35.978Z,9.77
2023-05-17T21:55:56.971Z,9.69
2023-05-17T22:00:13.125Z,9.59
2023-05-17T22:04:20.974Z,9.50
2023-05-17T22:08:29.607Z,9.44
2023-05-17T22:12:38.609Z,9.42
2023-05-17T22:16:47.546Z,9.43
2023-05-17T22:20:55.114Z,9.37
2023-05-17T22:25:03.518Z,9.31
2023-05-17T22:29:11.942Z,9.21
2023-05-17T22:33:22.010Z,9.09
2023-05-17T22:37:30.655Z,8.99
2023-05-17T22:41:39.051Z,8.98
2023-05-17T22:45:47.057Z,9.00
2023-05-17T22:49:55.260Z,8.97
2023-05-17T22:54:03.217Z,8.90
2023-05-17T22:58:11.352Z,8.85
2023-05-17T23:02:19.516Z,8.82
2023-05-17T23:06:32.197Z,8.79
2023-05-17T23:10:40.849Z,8.75
2023-05-17T23:14:49.281Z,8.77
2023-05-17T23:18:58.385Z,8.82
2023-05-17T23:23:08.587Z,8.83
2023-05-17T23:27:15.920Z,8.84
2023-05-17T23:31:26.052Z,8.82
2023-05-17T23:35:35.213Z,8.78
2023-05-17T23:39:44.669Z,8.73
2023-05-17T23:43:52.527Z,8.67
2023-05-17T23:48:01.448Z,8.63
2023-05-17T23:52:11.135Z,8.59
2023-05-17T23:56:19.393Z,8.53
